Time;durP1;ratioP1;P1;durP2;ratioP2;P2;SDS_P1;SDS_P2;PMS_P1;PMS_P2;Temp;Humidity;BMP_temperature;BMP_pressure;BME280_temperature;BME280_humidity;BME280_pressure;Samples;Min_cycle;Max_cycle;Signal;HPM_P1;HPM_P2
2021/08/10 00:02:12;;;;;;;3.90;1.83;;;;;;;22.89;60.69;98262.91;5069195;28;20248;-75
2021/08/10 00:04:41;;;;;;;4.50;1.97;;;;;;;22.87;61.09;98258.81;5068468;28;20631;-75
2021/08/10 00:07:08;;;;;;;5.33;1.83;;;;;;;22.83;60.73;98255.00;5068372;28;20205;-74
2021/08/10 00:09:35;;;;;;;4.30;1.90;;;;;;;22.87;60.44;98258.81;5070184;28;20203;-75
2021/08/10 00:12:03;;;;;;;3.23;1.60;;;;;;;22.84;60.68;98259.34;5065177;28;20208;-75
2021/08/10 00:14:30;;;;;;;1.83;1.70;;;;;;;22.79;61.54;98264.78;5065021;28;20199;-75
2021/08/10 00:16:58;;;;;;;4.80;1.77;;;;;;;22.66;62.16;98263.47;5067546;28;20221;-75
2021/08/10 00:19:25;;;;;;;3.43;1.60;;;;;;;22.69;62.32;98264.78;5069872;28;20205;-75
2021/08/10 00:21:54;;;;;;;3.93;1.43;;;;;;;22.75;61.80;98252.84;5070027;28;20225;-75
2021/08/10 00:24:21;;;;;;;2.27;1.63;;;;;;;22.68;62.06;98247.66;5070020;28;20201;-75
2021/08/10 00:26:48;;;;;;;2.83;1.50;;;;;;;22.73;61.73;98258.56;5067602;28;20586;-75
2021/08/10 00:29:16;;;;;;;2.60;1.80;;;;;;;22.61;62.85;98257.19;5062145;28;20587;-75
2021/08/10 00:31:43;;;;;;;3.73;1.63;;;;;;;22.77;62.17;98265.09;5068786;28;20202;-75
2021/08/10 00:34:10;;;;;;;4.40;2.07;;;;;;;22.60;63.27;98247.41;5069383;28;20238;-74
2021/08/10 00:36:38;;;;;;;2.67;1.83;;;;;;;22.64;62.66;98251.22;5061319;28;20231;-74
2021/08/10 00:39:08;;;;;;;3.90;2.03;;;;;;;22.42;64.06;98247.88;5063004;28;20205;-75
2021/08/10 00:41:35;;;;;;;3.27;2.13;;;;;;;22.50;64.44;98250.91;5070319;28;20221;-75
2021/08/10 00:44:02;;;;;;;3.83;2.27;;;;;;;22.55;64.75;98252.84;5066652;28;20307;-75
2021/08/10 00:46:30;;;;;;;6.73;2.67;;;;;;;22.81;63.04;98251.75;5068788;28;20217;-75
2021/08/10 00:48:57;;;;;;;2.53;1.80;;;;;;;22.84;62.54;98253.91;5070049;28;20217;-75
2021/08/10 00:51:26;;;;;;;3.50;1.90;;;;;;;22.60;63.42;98250.91;5069458;28;20596;-75
2021/08/10 00:53:54;;;;;;;3.00;2.00;;;;;;;22.86;61.87;98257.19;5069300;28;20211;-75
2021/08/10 00:56:22;;;;;;;4.03;1.80;;;;;;;22.65;62.79;98247.41;5067269;28;20343;-75
2021/08/10 00:58:50;;;;;;;5.60;2.17;;;;;;;22.81;62.66;98249.03;5070006;28;20684;-74
2021/08/10 01:01:17;;;;;;;3.90;1.97;;;;;;;22.77;62.95;98240.59;5068616;28;20594;-74
2021/08/10 01:03:44;;;;;;;2.27;1.60;;;;;;;22.73;62.91;98244.94;5069289;28;20231;-75
2021/08/10 01:06:16;;;;;;;3.90;2.00;;;;;;;22.61;64.07;98243.59;5069916;28;20225;-75
2021/08/10 01:08:50;;;;;;;5.03;2.07;;;;;;;22.58;65.04;98244.13;5069965;28;20206;-75
2021/08/10 01:11:26;;;;;;;2.37;1.87;;;;;;;22.62;64.41;98253.38;5068152;28;20204;-75
2021/08/10 01:13:57;;;;;;;4.27;1.90;;;;;;;22.51;65.22;98243.59;5063469;28;20225;-75
2021/08/10 01:16:30;;;;;;;3.57;1.93;;;;;;;22.56;65.03;98240.88;5068238;28;20250;-74
2021/08/10 01:19:00;;;;;;;3.30;1.90;;;;;;;22.72;64.43;98239.78;5061860;28;20206;-75
2021/08/10 01:21:29;;;;;;;2.67;1.90;;;;;;;22.71;64.81;98238.16;5069233;28;20227;-75
2021/08/10 01:24:02;;;;;;;4.13;2.30;;;;;;;22.69;65.25;98232.16;5071113;28;20210;-75
2021/08/10 01:26:42;;;;;;;3.87;1.80;;;;;;;22.28;67.65;98233.19;5068794;28;20223;-75
2021/08/10 01:29:18;;;;;;;5.60;2.10;;;;;;;22.59;66.42;98243.06;5070706;28;20209;-75
2021/08/10 01:31:47;;;;;;;3.33;1.80;;;;;;;-139.38;100.00;63230.50;5071552;28;20543;-74
2021/08/10 01:34:23;;;;;;;4.47;2.20;;;;;;;-139.38;100.00;63230.50;5071323;28;20581;-75
2021/08/10 01:36:52;;;;;;;5.13;1.97;;;;;;;-139.38;100.00;63230.50;5072530;28;20231;-74
2021/08/10 01:39:20;;;;;;;5.83;2.50;;;;;;;22.86;64.09;98240.88;5072771;28;20205;-75
2021/08/10 01:41:48;;;;;;;6.23;2.43;;;;;;;22.61;66.15;98233.53;5070357;28;20236;-73
2021/08/10 01:44:16;;;;;;;3.60;2.30;;;;;;;22.73;65.38;98227.78;5073493;28;20292;-73
2021/08/10 01:46:43;;;;;;;3.93;2.40;;;;;;;22.61;65.40;98228.09;5075660;28;20250;-73
2021/08/10 01:49:13;;;;;;;4.80;2.40;;;;;;;22.71;64.53;98222.63;5075920;28;20703;-74
2021/08/10 01:51:40;;;;;;;5.40;2.77;;;;;;;22.78;64.40;98223.19;5069793;28;20200;-73
2021/08/10 01:54:09;;;;;;;6.03;2.40;;;;;;;22.22;67.84;98217.94;5072694;28;20729;-73
2021/08/10 01:56:38;;;;;;;4.17;2.13;;;;;;;22.69;65.31;98218.53;5073312;28;20232;-73
2021/08/10 01:59:07;;;;;;;4.50;2.10;;;;;;;22.67;65.27;98220.72;5073167;28;20208;-73
2021/08/10 02:01:35;;;;;;;3.03;1.93;;;;;;;22.52;66.30;98223.44;5073355;28;20221;-74
2021/08/10 02:04:04;;;;;;;3.70;1.97;;;;;;;22.60;65.63;98220.19;5072880;28;20207;-74
2021/08/10 02:06:33;;;;;;;3.67;2.03;;;;;;;22.18;68.03;98211.41;5072124;28;20233;-73
2021/08/10 02:09:01;;;;;;;3.57;2.40;;;;;;;22.54;66.07;98218.56;5072612;28;20212;-73
2021/08/10 02:11:30;;;;;;;8.40;2.37;;;;;;;22.27;67.79;98213.34;5072459;28;20208;-73
2021/08/10 02:13:58;;;;;;;2.97;1.93;;;;;;;22.51;66.50;98206.31;5072260;28;20662;-73
2021/08/10 02:16:27;;;;;;;5.20;2.60;;;;;;;22.42;67.10;98205.19;5072035;28;20239;-73
2021/08/10 02:18:54;;;;;;;2.40;2.20;;;;;;;22.43;66.70;98206.81;5067396;28;20211;-74
2021/08/10 02:21:35;;;;;;;2.63;2.00;;;;;;;22.47;66.71;98198.97;5064322;28;20224;-73
2021/08/10 02:24:05;;;;;;;8.40;2.40;;;;;;;22.44;67.01;98202.22;5067838;28;20215;-73
2021/08/10 02:26:34;;;;;;;3.63;2.20;;;;;;;22.40;66.64;98201.13;5059232;28;20254;-73
2021/08/10 02:29:03;;;;;;;2.73;2.23;;;;;;;22.42;67.44;98207.09;5071185;28;20345;-73
2021/08/10 02:31:30;;;;;;;3.70;2.43;;;;;;;22.45;66.83;98203.88;5071741;28;20572;-73
2021/08/10 02:33:59;;;;;;;3.40;1.97;;;;;;;22.39;66.52;98202.22;5071498;28;20214;-73
2021/08/10 02:36:29;;;;;;;3.40;2.10;;;;;;;22.39;67.01;98202.22;5072534;28;20228;-73
2021/08/10 02:38:58;;;;;;;4.57;2.40;;;;;;;22.39;66.76;98204.94;5068380;28;20246;-73
2021/08/10 02:41:26;;;;;;;4.47;2.20;;;;;;;22.34;67.59;98196.78;5070437;28;20228;-74
2021/08/10 02:43:53;;;;;;;4.73;2.70;;;;;;;22.42;67.38;98205.19;5073384;28;20569;-73
2021/08/10 02:46:20;;;;;;;5.23;2.60;;;;;;;22.43;66.90;98209.53;5072025;28;20218;-73
2021/08/10 02:48:48;;;;;;;3.30;2.33;;;;;;;22.40;67.01;98199.19;5070228;28;20337;-74
2021/08/10 02:51:15;;;;;;;3.70;2.30;;;;;;;22.43;66.55;98197.84;5072783;28;20197;-73
2021/08/10 02:53:42;;;;;;;6.63;2.77;;;;;;;22.41;66.96;98206.28;5072036;28;20547;-73
2021/08/10 02:56:15;;;;;;;4.70;2.60;;;;;;;22.40;66.98;98198.41;5070829;28;20243;-74
2021/08/10 02:58:47;;;;;;;5.07;3.13;;;;;;;22.46;67.29;98208.22;5072150;28;20201;-73
2021/08/10 03:01:17;;;;;;;6.13;3.07;;;;;;;22.49;66.19;98208.47;5071547;28;20224;-73
2021/08/10 03:03:48;;;;;;;7.87;2.60;;;;;;;22.41;66.98;98202.75;5071784;28;20202;-73
2021/08/10 03:06:15;;;;;;;5.10;2.43;;;;;;;22.42;66.77;98207.09;5070166;28;20222;-73
2021/08/10 03:08:47;;;;;;;5.40;2.60;;;;;;;22.36;67.21;98209.00;5075848;28;20565;-73
2021/08/10 03:11:16;;;;;;;5.90;2.50;;;;;;;22.37;67.88;98204.38;5068595;28;20197;-74
2021/08/10 03:13:45;;;;;;;4.57;2.50;;;;;;;22.27;68.71;98218.78;5072263;28;20205;-73
2021/08/10 03:16:15;;;;;;;4.87;2.37;;;;;;;22.32;67.85;98213.34;5067917;28;20251;-73
2021/08/10 03:18:44;;;;;;;3.70;2.30;;;;;;;22.40;67.42;98209.28;5071843;28;20294;-73
2021/08/10 03:21:12;;;;;;;4.10;2.07;;;;;;;22.41;66.86;98202.75;5071582;28;20228;-73
2021/08/10 03:23:41;;;;;;;4.70;2.27;;;;;;;22.39;66.69;98205.72;5068384;28;20281;-73
2021/08/10 03:26:10;;;;;;;3.83;2.60;;;;;;;22.31;67.53;98206.28;5063967;28;20694;-74
2021/08/10 03:28:41;;;;;;;5.30;2.33;;;;;;;22.36;67.00;98209.00;5069124;28;20198;-74
2021/08/10 03:31:09;;;;;;;3.17;2.00;;;;;;;22.35;67.20;98212.78;5069110;28;20213;-74
2021/08/10 03:33:37;;;;;;;3.47;2.53;;;;;;;22.30;67.73;98206.56;5069387;28;20200;-74
2021/08/10 03:36:06;;;;;;;5.77;2.67;;;;;;;22.34;67.40;98207.66;5071419;28;20708;-74
2021/08/10 03:38:35;;;;;;;5.20;2.70;;;;;;;22.49;66.35;98218.56;5069360;28;20238;-73
2021/08/10 03:41:03;;;;;;;4.80;2.90;;;;;;;22.46;66.47;98211.78;5070720;28;20742;-73
2021/08/10 03:43:31;;;;;;;4.93;2.77;;;;;;;22.46;66.65;98217.22;5071126;28;20206;-73
2021/08/10 03:46:00;;;;;;;8.57;3.30;;;;;;;22.35;66.84;98206.56;5070764;28;20231;-73
2021/08/10 03:48:27;;;;;;;4.67;2.40;;;;;;;22.37;66.97;98215.25;5071010;28;20584;-74
2021/08/10 03:50:55;;;;;;;4.97;2.43;;;;;;;22.31;68.13;98206.28;5067436;28;20212;-73
2021/08/10 03:53:24;;;;;;;5.13;2.60;;;;;;;22.31;67.79;98209.00;5071271;28;20213;-73
2021/08/10 03:55:52;;;;;;;3.30;2.40;;;;;;;22.18;68.69;98205.97;5070785;28;20233;-73
2021/08/10 03:58:22;;;;;;;3.53;2.50;;;;;;;22.34;67.68;98210.38;5070436;28;20207;-73
2021/08/10 04:00:50;;;;;;;5.00;2.60;;;;;;;22.18;69.44;98201.38;5063919;28;20202;-74
2021/08/10 04:03:19;;;;;;;4.57;2.37;;;;;;;22.23;68.95;98200.53;5064508;28;20199;-73
2021/08/10 04:05:49;;;;;;;3.37;2.43;;;;;;;22.21;69.69;98203.56;5070488;28;20231;-74
2021/08/10 04:08:17;;;;;;;5.53;2.57;;;;;;;22.40;68.49;98201.13;5069835;28;20207;-73
2021/08/10 04:10:46;;;;;;;7.03;3.10;;;;;;;22.50;68.30;98210.09;5070982;28;20665;-73
2021/08/10 04:13:14;;;;;;;4.17;2.80;;;;;;;22.50;68.08;98210.09;5069139;28;20203;-73
2021/08/10 04:15:43;;;;;;;4.30;2.60;;;;;;;22.61;67.92;98210.94;5064178;28;20236;-73
2021/08/10 04:18:13;;;;;;;3.50;2.30;;;;;;;22.75;67.97;98210.09;5067271;28;20213;-74
2021/08/10 04:20:45;;;;;;;3.67;2.30;;;;;;;22.98;66.24;98208.72;5070655;28;20217;-74
2021/08/10 04:23:13;;;;;;;4.57;2.77;;;;;;;22.88;66.71;98214.19;5066016;28;20210;-73
2021/08/10 04:25:40;;;;;;;4.40;2.60;;;;;;;23.16;65.53;98219.84;5071045;28;20409;-73
2021/08/10 04:28:08;;;;;;;5.03;2.47;;;;;;;23.28;64.39;98223.13;5061575;28;20212;-73
2021/08/10 04:30:36;;;;;;;2.73;2.27;;;;;;;23.43;63.78;98233.16;5068289;28;20230;-73
2021/08/10 04:33:04;;;;;;;4.37;2.40;;;;;;;23.50;63.50;98231.75;5069658;28;20215;-73
2021/08/10 04:35:32;;;;;;;3.93;2.50;;;;;;;23.60;63.15;98230.91;5069755;28;20224;-73
2021/08/10 04:38:00;;;;;;;7.00;2.60;;;;;;;23.72;62.70;98236.84;5068983;28;20237;-74
2021/08/10 04:40:28;;;;;;;9.83;2.73;;;;;;;23.61;63.71;98236.06;5070551;28;20197;-74
2021/08/10 04:42:55;;;;;;;6.73;3.07;;;;;;;23.62;63.66;98234.19;5070322;28;20368;-74
2021/08/10 04:45:23;;;;;;;2.77;2.20;;;;;;;23.75;63.13;98239.84;5069968;28;20218;-74
2021/08/10 04:47:52;;;;;;;4.80;2.67;;;;;;;23.67;63.99;98245.06;5071396;28;20214;-74
2021/08/10 04:50:20;;;;;;;4.67;2.30;;;;;;;23.98;62.61;98246.56;5070326;28;20662;-73
2021/08/10 04:52:47;;;;;;;4.77;2.50;;;;;;;24.13;62.32;98246.50;5069104;28;20200;-72
2021/08/10 04:55:15;;;;;;;4.60;2.37;;;;;;;24.06;61.93;98235.09;5067780;28;20311;-71
2021/08/10 04:57:43;;;;;;;7.67;2.33;;;;;;;24.19;61.28;98235.28;5070891;28;20212;-73
2021/08/10 05:00:11;;;;;;;4.50;2.33;;;;;;;24.27;61.15;98233.88;5074287;28;20213;-71
2021/08/10 05:02:38;;;;;;;6.93;2.40;;;;;;;24.23;58.65;98240.97;5074528;28;20217;-74
2021/08/10 05:05:07;;;;;;;3.03;2.00;;;;;;;24.44;58.62;98246.03;5073377;28;20635;-73
2021/08/10 05:07:34;;;;;;;5.50;2.27;;;;;;;24.30;59.71;98236.00;5073965;28;20205;-74
2021/08/10 05:10:02;;;;;;;4.87;2.10;;;;;;;24.29;60.12;98239.84;5074429;28;20205;-73
2021/08/10 05:12:31;;;;;;;5.17;2.67;;;;;;;24.32;59.11;98240.09;5065624;28;20197;-74
2021/08/10 05:14:58;;;;;;;6.47;2.77;;;;;;;24.32;59.83;98242.03;5072575;28;20218;-73
2021/08/10 05:17:25;;;;;;;3.97;2.20;;;;;;;24.51;60.28;98243.78;5070288;28;20212;-74
2021/08/10 05:19:53;;;;;;;5.43;2.50;;;;;;;24.81;58.59;98248.19;5074406;28;20209;-73
2021/08/10 05:22:21;;;;;;;7.20;2.60;;;;;;;24.26;60.38;98245.84;5074199;28;20232;-73
2021/08/10 05:24:48;;;;;;;3.50;2.37;;;;;;;24.85;58.52;98241.06;5073614;28;20546;-76
2021/08/10 05:27:15;;;;;;;4.53;2.40;;;;;;;25.17;56.24;98257.69;5074112;28;20201;-75
2021/08/10 05:29:44;;;;;;;3.83;2.40;;;;;;;24.92;56.72;98261.50;5073331;28;20199;-75
2021/08/10 05:32:11;;;;;;;4.50;2.30;;;;;;;25.06;56.57;98265.19;5074648;28;20209;-74
2021/08/10 05:34:39;;;;;;;6.27;2.80;;;;;;;24.94;57.58;98267.47;5074065;28;20206;-74
2021/08/10 05:37:07;;;;;;;3.70;2.00;;;;;;;24.97;57.54;98277.84;5074616;28;20206;-80
2021/08/10 05:39:34;;;;;;;4.13;2.50;;;;;;;24.97;58.21;98268.81;5066246;28;20294;-75
2021/08/10 05:42:01;;;;;;;5.00;2.30;;;;;;;24.67;59.76;98258.16;5073454;28;20226;-74
2021/08/10 05:44:29;;;;;;;3.37;2.20;;;;;;;24.28;60.22;98263.56;5073637;28;20624;-75
2021/08/10 05:46:57;;;;;;;6.27;2.53;;;;;;;25.38;56.06;98270.91;5074289;28;20237;-75
2021/08/10 05:49:25;;;;;;;4.50;2.57;;;;;;;25.28;56.27;98270.22;5073249;28;20255;-76
2021/08/10 05:51:52;;;;;;;4.90;2.17;;;;;;;25.17;55.98;98263.16;5069049;28;20207;-75
2021/08/10 05:54:19;;;;;;;5.60;2.57;;;;;;;24.57;57.23;98266.41;5074422;28;20296;-76
2021/08/10 05:56:48;;;;;;;3.27;2.53;;;;;;;24.39;58.18;98259.69;5073138;28;20671;-75
2021/08/10 05:59:15;;;;;;;4.80;2.37;;;;;;;25.27;55.21;98269.38;5076754;28;20257;-80
2021/08/10 06:01:43;;;;;;;4.07;2.17;;;;;;;25.87;53.40;98271.44;5066373;28;20592;-77
2021/08/10 06:04:11;;;;;;;4.40;2.40;;;;;;;25.19;55.02;98272.69;5072771;28;20208;-78
2021/08/10 06:06:38;;;;;;;5.13;2.40;;;;;;;25.92;54.07;98281.53;5067478;28;20224;-80
2021/08/10 06:09:07;;;;;;;2.77;2.30;;;;;;;26.38;51.18;98286.09;5071680;28;20573;-76
2021/08/10 06:11:35;;;;;;;4.20;2.17;;;;;;;26.01;48.81;98287.97;5071261;28;20664;-75
2021/08/10 06:14:03;;;;;;;5.00;2.43;;;;;;;25.17;53.44;98274.09;5073846;28;20201;-73
2021/08/10 06:16:30;;;;;;;3.67;2.50;;;;;;;25.42;53.92;98276.59;5066376;28;20252;-73
2021/08/10 06:18:57;;;;;;;3.97;2.13;;;;;;;25.80;52.42;98276.44;5068756;28;20246;-77
2021/08/10 06:21:26;;;;;;;4.00;2.20;;;;;;;26.23;50.46;98280.84;5072646;28;20212;-76
2021/08/10 06:23:53;;;;;;;4.17;2.20;;;;;;;26.20;50.12;98277.88;5072317;28;20205;-76
2021/08/10 06:26:21;;;;;;;3.73;2.00;;;;;;;25.75;52.82;98271.03;5071072;28;20851;-76
2021/08/10 06:28:49;;;;;;;4.83;2.07;;;;;;;26.48;48.92;98277.75;5073198;28;20210;-74
2021/08/10 06:31:16;;;;;;;3.23;1.80;;;;;;;26.42;48.03;98278.09;5068111;28;20209;-74
2021/08/10 06:33:43;;;;;;;5.93;2.07;;;;;;;25.06;52.94;98267.91;5071045;28;20201;-75
2021/08/10 06:36:11;;;;;;;3.37;2.00;;;;;;;25.82;51.21;98271.50;5072428;28;20221;-75
2021/08/10 06:38:39;;;;;;;3.73;2.10;;;;;;;26.54;48.42;98279.28;5070947;28;20201;-75
2021/08/10 06:41:07;;;;;;;7.20;2.30;;;;;;;25.53;50.99;98275.41;5071640;28;20208;-76
2021/08/10 06:43:34;;;;;;;5.23;2.30;;;;;;;26.13;49.05;98280.97;5076192;28;20384;-76
2021/08/10 06:46:01;;;;;;;6.80;2.07;;;;;;;26.65;47.00;98280.00;5069930;28;20225;-76
2021/08/10 06:48:29;;;;;;;4.00;1.77;;;;;;;25.91;49.46;98266.19;5070516;28;20205;-75
2021/08/10 06:50:56;;;;;;;4.67;1.90;;;;;;;25.95;48.66;98273.53;5070155;28;20201;-73
2021/08/10 06:53:23;;;;;;;5.20;2.00;;;;;;;25.94;49.26;98271.91;5069136;28;20486;-72
2021/08/10 06:55:52;;;;;;;7.83;2.20;;;;;;;26.41;47.45;98274.53;5067296;28;20221;-75
2021/08/10 06:58:19;;;;;;;5.13;1.80;;;;;;;25.61;50.02;98269.28;5070056;28;20216;-72
2021/08/10 07:00:47;;;;;;;6.63;2.10;;;;;;;26.77;45.86;98272.94;5071671;28;20220;-71
2021/08/10 07:03:14;;;;;;;3.70;1.90;;;;;;;28.15;42.35;98271.75;5065918;28;20240;-72
2021/08/10 07:05:42;;;;;;;3.57;1.90;;;;;;;28.30;41.12;98282.38;5068935;28;20234;-69
2021/08/10 07:08:09;;;;;;;3.40;1.87;;;;;;;28.30;40.74;98280.47;5065927;28;20213;-67
2021/08/10 07:10:36;;;;;;;5.00;2.77;;;;;;;27.51;43.51;98274.69;5069927;28;20202;-67
2021/08/10 07:13:05;;;;;;;3.27;2.00;;;;;;;27.10;44.25;98276.47;5068642;28;20566;-70
2021/08/10 07:15:32;;;;;;;3.33;1.87;;;;;;;28.78;41.26;98275.28;5063309;28;20319;-68
2021/08/10 07:18:01;;;;;;;5.67;2.10;;;;;;;29.22;39.66;98278.03;5069799;28;20292;-68
2021/08/10 07:20:28;;;;;;;2.83;1.90;;;;;;;28.99;39.80;98273.69;5066870;28;20201;-69
2021/08/10 07:22:55;;;;;;;4.20;1.93;;;;;;;27.11;44.25;98264.44;5063576;28;20711;-68
2021/08/10 07:25:23;;;;;;;3.60;1.60;;;;;;;28.55;39.99;98266.19;5069234;28;20232;-68
2021/08/10 07:27:50;;;;;;;4.73;1.50;;;;;;;27.77;42.91;98259.34;5069758;28;20239;-68
2021/08/10 07:30:18;;;;;;;5.27;1.90;;;;;;;27.49;43.40;98253.06;5060653;28;20578;-68
2021/08/10 07:32:46;;;;;;;3.10;1.63;;;;;;;27.40;44.44;98252.13;5070255;28;20207;-68
2021/08/10 07:35:13;;;;;;;2.60;1.80;;;;;;;28.97;40.18;98267.66;5068139;28;20282;-69
2021/08/10 07:37:42;;;;;;;3.90;1.53;;;;;;;29.65;37.34;98277.13;5067666;28;20198;-69
2021/08/10 07:40:11;;;;;;;6.53;1.60;;;;;;;29.34;38.38;98264.53;5071045;28;20218;-71
2021/08/10 07:42:41;;;;;;;4.20;1.67;;;;;;;29.71;37.92;98256.63;5077218;28;20224;-68
2021/08/10 07:45:18;;;;;;;2.93;1.53;;;;;;;29.81;38.29;98247.28;5080019;28;20234;-70
2021/08/10 07:47:50;;;;;;;3.07;1.60;;;;;;;29.09;40.59;98240.44;5073131;28;20223;-69
2021/08/10 07:50:18;;;;;;;5.03;1.73;;;;;;;29.62;39.56;98253.03;5067826;28;20243;-69
2021/08/10 07:52:47;;;;;;;4.20;1.80;;;;;;;27.81;46.45;98238.44;5070484;28;20711;-70
2021/08/10 07:55:14;;;;;;;9.10;3.00;;;;;;;29.76;39.87;98241.91;5067165;28;20895;-70
2021/08/10 07:57:42;;;;;;;3.70;1.47;;;;;;;28.95;40.51;98235.00;5070342;28;20214;-70
2021/08/10 08:00:11;;;;;;;3.87;1.50;;;;;;;29.71;39.21;98239.31;5067298;28;20581;-70
2021/08/10 08:02:39;;;;;;;5.23;1.87;;;;;;;27.75;44.49;98224.00;5071300;28;20222;-75
2021/08/10 08:05:07;;;;;;;3.13;1.97;;;;;;;27.37;46.33;98224.50;5067586;28;20234;-77
2021/08/10 08:07:35;;;;;;;3.73;1.70;;;;;;;27.65;45.73;98223.38;5069155;28;20221;-73
2021/08/10 08:10:02;;;;;;;10.07;2.07;;;;;;;29.11;41.44;98227.19;5072070;28;20648;-76
2021/08/10 08:12:29;;;;;;;4.23;1.73;;;;;;;29.22;40.58;98231.28;5074533;28;20573;-78
2021/08/10 08:14:57;;;;;;;4.60;1.73;;;;;;;29.48;40.09;98223.94;5070651;28;20236;-74
2021/08/10 08:17:24;;;;;;;2.00;1.50;;;;;;;27.60;45.58;98218.81;5070358;28;20309;-75
2021/08/10 08:19:53;;;;;;;2.70;1.50;;;;;;;29.31;41.72;98213.72;5071491;28;20207;-78
2021/08/10 08:22:20;;;;;;;5.00;1.80;;;;;;;30.14;39.53;98216.28;5069851;28;20202;-74
2021/08/10 08:24:47;;;;;;;3.75;1.77;;;;;;;29.43;40.51;98210.34;5070680;28;20241;-76
2021/08/10 08:27:14;;;;;;;5.50;1.90;;;;;;;27.27;45.79;98211.78;5064931;28;20212;-73
2021/08/10 08:29:42;;;;;;;5.10;2.93;;;;;;;28.25;43.23;98209.22;5070840;28;20209;-76
2021/08/10 08:32:09;;;;;;;4.90;1.58;;;;;;;28.19;43.35;98204.97;5071825;28;20298;-73
2021/08/10 08:34:37;;;;;;;3.33;1.70;;;;;;;28.76;41.61;98211.56;5074575;28;20239;-75
2021/08/10 08:37:06;;;;;;;2.00;1.40;;;;;;;28.41;42.00;98215.16;5073939;28;20231;-77
2021/08/10 08:39:33;;;;;;;4.32;1.60;;;;;;;28.00;44.29;98207.03;5067648;28;20201;-77
2021/08/10 08:42:01;;;;;;;5.88;1.85;;;;;;;29.71;38.94;98223.63;5070998;28;20212;-75
2021/08/10 08:44:34;;;;;;;2.33;1.63;;;;;;;29.74;38.33;98227.66;5069718;28;20709;-75
2021/08/10 08:47:03;;;;;;;2.70;1.35;;;;;;;30.00;38.91;98223.84;5074745;28;20259;-77
2021/08/10 08:49:32;;;;;;;3.72;1.50;;;;;;;30.05;37.97;98223.69;5072845;28;20204;-75
2021/08/10 08:52:01;;;;;;;3.15;1.52;;;;;;;30.86;35.09;98239.31;5071306;28;20658;-76
2021/08/10 08:54:31;;;;;;;8.82;2.63;;;;;;;31.66;34.82;98241.22;5077457;28;20202;-77
2021/08/10 08:56:59;;;;;;;5.13;1.40;;;;;;;31.08;33.75;98255.69;5078660;28;20240;-78
2021/08/10 08:59:26;;;;;;;3.63;1.60;;;;;;;30.94;34.43;98255.06;5084225;28;20296;-78
2021/08/10 09:01:54;;;;;;;3.70;1.67;;;;;;;29.15;36.38;98241.91;5079060;28;20250;-74
2021/08/10 09:04:22;;;;;;;3.90;1.50;;;;;;;31.44;33.38;98252.53;5081413;28;20643;-77
2021/08/10 09:06:49;;;;;;;6.05;1.60;;;;;;;30.69;34.03;98250.38;5074237;28;20253;-78
2021/08/10 09:09:22;;;;;;;6.90;1.77;;;;;;;29.33;36.63;98254.63;5077149;28;20204;-78
2021/08/10 09:11:52;;;;;;;3.08;1.40;;;;;;;31.52;33.67;98259.97;5082052;28;20216;-76
2021/08/10 09:14:20;;;;;;;3.20;1.33;;;;;;;31.37;33.80;98260.50;5072836;28;20204;-74
2021/08/10 09:17:07;;;;;;;6.20;1.67;;;;;;;31.35;33.77;98262.78;5075583;28;20748;-77
2021/08/10 09:19:46;;;;;;;21.13;4.47;;;;;;;31.87;33.46;98258.72;5071986;28;20205;-77
2021/08/10 09:22:15;;;;;;;16.40;4.25;;;;;;;32.90;31.31;98263.25;5078509;28;20288;-75
2021/08/10 09:24:44;;;;;;;5.55;2.10;;;;;;;32.42;30.26;98271.25;5081420;28;20252;-81
2021/08/10 09:27:31;;;;;;;18.92;5.78;;;;;;;32.98;30.63;98269.81;5078350;28;20296;-80
2021/08/10 09:29:59;;;;;;;11.38;4.63;;;;;;;-139.38;100.00;63230.50;5079428;28;20292;-80
2021/08/10 09:32:27;;;;;;;6.28;2.65;;;;;;;31.86;31.84;98270.88;5078891;28;20215;-80
2021/08/10 09:35:11;;;;;;;16.65;6.65;;;;;;;32.69;30.76;98270.69;5076138;28;20254;-79
2021/08/10 09:37:39;;;;;;;10.38;3.53;;;;;;;32.15;32.08;98266.19;5077252;28;20247;-80
2021/08/10 09:40:31;;;;;;;13.48;6.85;;;;;;;33.42;29.54;98269.91;5077011;28;20220;-77
2021/08/10 09:43:25;;;;;;;13.82;8.02;;;;;;;32.23;31.72;98278.34;5073228;28;20217;-75
2021/08/10 09:46:23;;;;;;;20.25;10.80;;;;;;;32.44;29.96;98276.44;5067491;28;20582;-76
2021/08/10 09:48:54;;;;;;;5.45;2.97;;;;;;;33.46;29.08;98283.88;5068580;28;20561;-76
2021/08/10 09:51:24;;;;;;;16.95;5.20;;;;;;;32.60;30.63;98280.22;5075307;28;20681;-76
2021/08/10 09:53:58;;;;;;;8.00;2.67;;;;;;;31.57;31.77;98273.59;5073803;28;20213;-74
2021/08/10 09:56:45;;;;;;;3.63;1.83;;;;;;;32.74;30.52;98269.72;5071216;28;20228;-75
2021/08/10 09:59:14;;;;;;;7.75;3.42;;;;;;;33.48;29.98;98270.47;5068176;28;20236;-76
2021/08/10 10:01:43;;;;;;;5.75;1.75;;;;;;;33.26;29.75;98282.75;5073639;28;20288;-74
2021/08/10 10:04:16;;;;;;;8.98;1.88;;;;;;;32.64;30.29;98284.72;5073398;28;20235;-82
2021/08/10 10:06:44;;;;;;;3.28;1.50;;;;;;;33.03;28.54;98289.81;5069241;28;20228;-75
2021/08/10 10:09:12;;;;;;;3.67;1.73;;;;;;;32.26;28.82;98300.63;5074857;28;20205;-82
2021/08/10 10:11:41;;;;;;;3.40;1.33;;;;;;;32.27;28.53;98296.69;5078531;28;20209;-81
2021/08/10 10:14:11;;;;;;;3.25;2.35;;;;;;;32.21;28.58;98288.91;5074659;28;20206;-79
2021/08/10 10:16:42;;;;;;;4.05;2.63;;;;;;;32.31;29.18;98289.38;5072997;28;20233;-80
2021/08/10 10:19:11;;;;;;;3.72;1.65;;;;;;;32.14;29.17;98283.94;5075184;28;20197;-83
2021/08/10 10:21:41;;;;;;;2.55;1.48;;;;;;;32.30;29.18;98287.75;5072732;28;20201;-81
2021/08/10 10:24:09;;;;;;;2.58;1.50;;;;;;;32.76;28.81;98281.22;5071346;28;20231;-79
2021/08/10 10:26:39;;;;;;;4.45;2.38;;;;;;;32.78;29.33;98284.50;5073075;28;20689;-80
2021/08/10 10:29:06;;;;;;;2.30;1.90;;;;;;;33.52;28.16;98293.56;5074199;28;20202;-81
2021/08/10 10:31:34;;;;;;;4.15;1.40;;;;;;;32.77;29.03;98289.22;5071132;28;20603;-75
2021/08/10 10:34:03;;;;;;;5.95;1.50;;;;;;;33.14;28.45;98285.47;5067396;28;20206;-76
2021/08/10 10:36:31;;;;;;;2.25;1.25;;;;;;;33.18;28.91;98282.81;5070623;28;20236;-77
2021/08/10 10:39:00;;;;;;;4.10;1.20;;;;;;;33.05;28.90;98281.97;5073626;28;20202;-74
2021/08/10 10:41:32;;;;;;;2.90;1.65;;;;;;;34.09;27.61;98277.72;5082909;28;20229;-74
2021/08/10 10:44:00;;;;;;;3.80;1.42;;;;;;;33.13;29.57;98271.97;5087911;28;20224;-73
2021/08/10 10:46:30;;;;;;;4.90;1.42;;;;;;;32.94;30.00;98272.47;5078974;28;20232;-77
2021/08/10 10:48:58;;;;;;;4.00;1.52;;;;;;;33.85;28.14;98274.97;5070101;28;20214;-76
2021/08/10 10:51:43;;;;;;;4.00;1.67;;;;;;;33.82;28.83;98273.69;5072737;28;20267;-79
2021/08/10 10:54:25;;;;;;;3.83;1.38;;;;;;;33.34;28.88;98270.78;5076530;28;20266;-80
2021/08/10 10:56:54;;;;;;;4.60;1.40;;;;;;;33.92;28.01;98281.56;5070405;28;20256;-76
2021/08/10 10:59:28;;;;;;;4.05;1.70;;;;;;;32.34;30.05;98285.13;5073095;28;20210;-80
2021/08/10 11:02:25;;;;;;;3.78;1.70;;;;;;;31.44;31.78;98272.66;5071079;28;20724;-81
2021/08/10 11:05:33;;;;;;;3.00;1.58;;;;;;;31.87;31.17;98264.25;5071882;28;20215;-78
2021/08/10 11:08:05;;;;;;;3.03;1.65;;;;;;;31.18;32.02;98271.06;5069913;28;20684;-77
2021/08/10 11:10:53;;;;;;;2.95;1.52;;;;;;;32.50;30.42;98270.38;5066488;28;20206;-79
2021/08/10 11:13:41;;;;;;;3.63;1.95;;;;;;;33.20;29.54;98263.94;5071296;28;20193;-77
2021/08/10 11:16:11;;;;;;;4.20;1.40;;;;;;;32.45;29.91;98270.59;5072047;28;20225;-77
2021/08/10 11:18:40;;;;;;;3.80;1.60;;;;;;;31.16;31.67;98263.13;5072111;28;20288;-77
2021/08/10 11:21:25;;;;;;;2.97;1.35;;;;;;;30.51;33.79;98248.72;5073164;28;20251;-81
2021/08/10 11:23:58;;;;;;;4.05;1.70;;;;;;;31.04;33.13;98248.38;5076775;28;20221;-80
2021/08/10 11:26:38;;;;;;;4.45;1.40;;;;;;;32.56;30.89;98259.91;5074657;28;20233;-80
2021/08/10 11:29:12;;;;;;;3.78;1.50;;;;;;;32.98;30.21;98258.75;5074581;28;20197;-82
2021/08/10 11:31:53;;;;;;;4.78;1.77;;;;;;;31.77;30.90;98268.19;5074465;28;20657;-82
2021/08/10 11:34:41;;;;;;;4.05;1.73;;;;;;;33.38;29.62;98266.19;5073797;28;20537;-82
2021/08/10 11:37:40;;;;;;;13.38;4.28;;;;;;;32.18;30.65;98262.75;5075155;28;20246;-81
2021/08/10 11:40:18;;;;;;;29.25;6.80;;;;;;;32.81;30.63;98250.63;5070851;28;20255;-80
2021/08/10 11:43:00;;;;;;;3.85;2.20;;;;;;;33.85;29.57;98250.81;5066934;28;20199;-78
2021/08/10 11:45:40;;;;;;;4.70;1.60;;;;;;;33.74;28.55;98255.19;5073273;28;20233;-79